Airfield :
LOGIN :

Register | Disclaimer

   EN    FR    IT 

 










Legend :    VFR   Marginal VFR   IFR   Intensive IFR   Very Intensive IFR
Visi :
Ceiling :
>= 8 km
>= 3000ft
5 to 8 km
1000 to 3000 ft
1500m to 5 km
500 to 1000 ft
800 to 1500m
200 to 500 ft
< 800m
< 200 ft
Symbols :   Thunderstorms  Fog  Heavy snow  Heavy precipitations  Wind > 20 kt
SIGMETs :     Misc.  Thunderstorms  Icing  Turbulence  Mountain Waves  Volcanic Ashes







- Airport Elevation : 1197 ft
- IATA code : SPM


ETAD - Spangdahlem Ab

CURRENT METAR :
  • 260656Z AUTO 24013G18KT 9999 FEW021 OVC046 08/03 A3004 RMK AO2 SLP168 T00790034 $

EXPIRED METARs :
  • 260626Z AUTO 24011KT 9999 FEW020 BKN027 BKN045 07/03 A3003 RMK AO2 CIG 027V046 BKN027 V SCT SLP165 $
  • 260556Z AUTO 23012KT 9999 FEW039 BKN048 07/03 A3003 RMK AO2 SLP163 T00700032 10070 20045 52012 $
  • 260541Z AUTO 23011KT 9999 FEW030 FEW035 BKN047 07/03 A3002 RMK AO2 SLP160 $
  • 260456Z AUTO 23010KT 9999 FEW035 BKN045 06/03 A3001 RMK AO2 SLP158 T00590029 $
  • 260441Z AUTO 23010KT 9999 SCT029 BKN035 06/03 A3000 RMK AO2 SLP153 $

TAF AMD TAF ETAD
Valid from the 26 at 06:00 until the 27 at 09:00 UTC


260625Z 2606/2709 24015G20KT 9999 SCT030 BKN040 610409 QNH3002INS
BECMG 2607/2608 24015G20KT 8000 -SHRA SCT025 BKN030 610409 QNH3005INS
BECMG 2613/2614 27012G18KT 9999 NSW SCT030 QNH3004INS
BECMG 2617/2618 27009KT 9999 SCT050 QNH2995INS TX16/2614Z TN02/2704Z
No reported NOTAMs for that airfield.



MET'MAP, your aeronautical weather chart ! - Copyright ORBIFLY December 2007 - Disclaimer

ORBIFLY MET'MAP TEAM :

Programming & Development : Alexandra Zaïnal
Concept & Development : Baudouin d'Aumeries
Co-Development & Prog : Marc-Olivier Méhu
Technical & hardware support : Manuel Goepfert

Contact : metmap@orbifly.com




SOURCES & CREDITS :

   NOAA